Time;durP1;ratioP1;P1;durP2;ratioP2;P2;SDS_P1;SDS_P2;PMS_P1;PMS_P2;Temp;Humidity;BMP_temperature;BMP_pressure;BME280_temperature;BME280_humidity;BME280_pressure;Samples;Min_cycle;Max_cycle;Signal;HPM_P1;HPM_P2
2024/01/14 00:01:29;;;;;;;15.93;6.50;;;;;;;-10.95;100.00;97506.72;5096907;28;20504;-50
2024/01/14 00:03:55;;;;;;;10.43;4.90;;;;;;;-11.02;100.00;97440.81;5096649;28;20055;-54
2024/01/14 00:06:22;;;;;;;12.40;5.45;;;;;;;-11.09;100.00;97411.19;5096991;28;20135;-56
2024/01/14 00:08:48;;;;;;;12.15;4.57;;;;;;;-11.05;100.00;97363.81;5095471;28;20142;-52
2024/01/14 00:11:14;;;;;;;5.65;2.42;;;;;;;-11.14;100.00;97323.88;5096946;28;20324;-52
2024/01/14 00:13:40;;;;;;;6.13;4.13;;;;;;;-11.24;100.00;97297.47;5096718;28;20142;-57
2024/01/14 00:16:06;;;;;;;14.70;6.10;;;;;;;-11.15;100.00;97286.06;5096695;28;20150;-54
2024/01/14 00:18:32;;;;;;;10.82;4.05;;;;;;;-11.15;100.00;97254.31;5096720;28;20052;-56
2024/01/14 00:20:58;;;;;;;10.88;6.03;;;;;;;-11.09;100.00;97263.03;5096396;28;20216;-57
2024/01/14 00:23:24;;;;;;;15.45;5.35;;;;;;;-11.08;100.00;97247.94;5096546;28;20413;-58
2024/01/14 00:25:50;;;;;;;22.45;6.55;;;;;;;-11.02;100.00;97215.09;5096488;28;20147;-57
2024/01/14 00:28:16;;;;;;;10.95;5.05;;;;;;;-11.24;100.00;97173.13;5096724;28;20055;-55
2024/01/14 00:30:43;;;;;;;27.40;8.70;;;;;;;-11.04;100.00;97191.53;5096321;28;20195;-57
2024/01/14 00:33:09;;;;;;;50.28;9.13;;;;;;;-10.93;100.00;97185.13;5096565;28;20047;-56
2024/01/14 00:35:34;;;;;;;10.70;5.90;;;;;;;-11.00;100.00;97158.16;5096189;28;20080;-56
2024/01/14 00:38:02;;;;;;;12.32;5.75;;;;;;;-10.86;100.00;97153.06;5096256;28;20060;-58
2024/01/14 00:40:29;;;;;;;12.70;5.82;;;;;;;-10.93;100.00;97126.91;5095969;28;20056;-54
2024/01/14 00:42:55;;;;;;;17.35;7.47;;;;;;;-11.05;100.00;97110.59;5096342;28;20134;-54
2024/01/14 00:45:21;;;;;;;10.20;5.78;;;;;;;-11.15;100.00;97086.84;5096386;28;20052;-52
2024/01/14 00:47:48;;;;;;;16.50;7.22;;;;;;;-10.93;100.00;97096.97;5096053;28;20321;-57
2024/01/14 00:50:14;;;;;;;12.27;6.38;;;;;;;-10.82;100.00;97079.97;5096032;28;20436;-57
2024/01/14 00:52:39;;;;;;;6.40;4.13;;;;;;;-11.17;100.00;97050.06;5096208;28;20056;-57
2024/01/14 00:55:06;;;;;;;16.25;5.45;;;;;;;-11.21;100.00;97050.91;5096225;28;20474;-55
2024/01/14 00:57:32;;;;;;;12.52;5.68;;;;;;;-11.01;100.00;97042.03;5095888;28;20095;-54
2024/01/14 00:59:58;;;;;;;16.50;6.65;;;;;;;-10.81;100.00;97025.97;5096259;28;20091;-52
2024/01/14 01:02:24;;;;;;;12.88;6.20;;;;;;;-10.74;100.00;97015.03;5095922;28;20213;-52
2024/01/14 01:04:50;;;;;;;15.80;7.00;;;;;;;-10.79;100.00;96999.22;5096464;28;20389;-51
2024/01/14 01:07:16;;;;;;;11.40;5.03;;;;;;;-10.91;100.00;96979.19;5095823;28;20059;-52
2024/01/14 01:09:42;;;;;;;12.25;7.13;;;;;;;-10.84;100.00;96951.63;5096217;28;20048;-51
2024/01/14 01:12:09;;;;;;;16.83;7.15;;;;;;;-11.07;100.00;96943.38;5095983;28;20052;-52
2024/01/14 01:14:35;;;;;;;13.68;5.30;;;;;;;-10.90;100.00;96941.06;5095901;28;20051;-52
2024/01/14 01:17:01;;;;;;;18.25;7.40;;;;;;;-11.15;100.00;96931.53;5095744;28;20076;-58
2024/01/14 01:19:27;;;;;;;14.50;5.68;;;;;;;-11.31;100.00;96939.91;5095745;28;20302;-52
2024/01/14 01:21:54;;;;;;;6.50;3.63;;;;;;;-11.29;100.00;96961.56;5099471;28;20325;-54
2024/01/14 01:24:20;;;;;;;4.47;3.53;;;;;;;-11.25;100.00;96976.59;5099062;28;20044;-59
2024/01/14 01:26:46;;;;;;;16.55;7.25;;;;;;;-11.09;100.00;96992.31;5099443;28;20144;-52
2024/01/14 01:29:12;;;;;;;10.38;4.25;;;;;;;-11.22;100.00;96965.47;5099021;28;20052;-54
2024/01/14 01:31:39;;;;;;;16.08;7.18;;;;;;;-11.33;100.00;96976.41;5099247;28;20056;-54
2024/01/14 01:34:05;;;;;;;25.17;6.65;;;;;;;-11.02;100.00;97012.13;5098932;28;20048;-53
2024/01/14 01:36:31;;;;;;;11.43;4.55;;;;;;;-11.25;100.00;97002.28;5098857;28;20139;-59
2024/01/14 01:38:58;;;;;;;11.52;4.88;;;;;;;-11.07;100.00;97016.66;5098791;28;20068;-58
2024/01/14 01:41:24;;;;;;;12.40;6.22;;;;;;;-11.21;100.00;97000.66;5098974;28;20052;-57
2024/01/14 01:43:50;;;;;;;13.57;4.38;;;;;;;-10.86;100.00;97009.31;5098840;28;20405;-52
2024/01/14 01:46:17;;;;;;;8.02;4.72;;;;;;;-11.24;100.00;96986.13;5098949;28;20132;-59
2024/01/14 01:48:43;;;;;;;8.15;3.97;;;;;;;-11.17;100.00;97001.66;5099002;28;20135;-52
2024/01/14 01:51:10;;;;;;;16.63;7.35;;;;;;;-11.12;100.00;97008.78;5098689;28;20056;-54
2024/01/14 01:53:36;;;;;;;11.48;6.38;;;;;;;-11.14;100.00;97009.03;5098833;28;20393;-52
2024/01/14 01:56:04;;;;;;;15.43;6.00;;;;;;;-11.20;100.00;97018.88;5098690;28;20055;-58
2024/01/14 01:58:31;;;;;;;12.25;5.78;;;;;;;-11.12;100.00;97038.69;5098995;28;20135;-51
2024/01/14 02:00:57;;;;;;;13.45;4.93;;;;;;;-11.33;100.00;97045.94;5098408;28;20082;-56
2024/01/14 02:03:25;;;;;;;10.23;4.88;;;;;;;-11.15;100.00;97031.28;5098993;28;20273;-56
2024/01/14 02:05:54;;;;;;;12.88;5.97;;;;;;;-10.96;100.00;97039.31;5098472;28;20051;-54
2024/01/14 02:08:21;;;;;;;4.03;3.40;;;;;;;-11.10;100.00;97007.41;5098344;28;20464;-58
2024/01/14 02:10:47;;;;;;;9.20;5.97;;;;;;;-11.00;100.00;97002.03;5098700;28;20205;-55
2024/01/14 02:13:14;;;;;;;11.65;4.72;;;;;;;-11.17;100.00;96983.94;5098388;28;20144;-56
2024/01/14 02:15:40;;;;;;;9.50;5.20;;;;;;;-11.06;100.00;96984.66;5098510;28;20052;-52
2024/01/14 02:18:06;;;;;;;14.13;6.43;;;;;;;-10.62;100.00;97004.09;5098352;28;20151;-57
2024/01/14 02:20:32;;;;;;;12.80;6.57;;;;;;;-10.31;100.00;96967.44;5098332;28;20047;-51
2024/01/14 02:23:00;;;;;;;13.70;6.72;;;;;;;-10.75;100.00;96911.00;5098370;28;20189;-57
2024/01/14 02:25:27;;;;;;;10.00;4.90;;;;;;;-11.08;100.00;96904.75;5098301;28;20455;-54
2024/01/14 02:27:53;;;;;;;8.15;3.55;;;;;;;-10.95;100.00;96925.25;5098161;28;20047;-54
2024/01/14 02:30:19;;;;;;;3.42;2.60;;;;;;;-11.01;100.00;96910.50;5098579;28;20142;-58
2024/01/14 02:32:48;;;;;;;9.57;4.53;;;;;;;-10.93;100.00;96919.66;5097068;28;20414;-52
2024/01/14 02:35:14;;;;;;;6.97;4.25;;;;;;;-10.87;100.00;96915.91;5097860;28;20420;-58
2024/01/14 02:37:43;;;;;;;8.35;5.28;;;;;;;-10.82;100.00;96925.66;5098251;28;20052;-58
2024/01/14 02:40:10;;;;;;;19.90;6.53;;;;;;;-10.53;100.00;96938.81;5097848;28;20047;-58
2024/01/14 02:42:36;;;;;;;8.60;5.28;;;;;;;-10.72;100.00;96897.22;5098050;28;20048;-56
2024/01/14 02:45:02;;;;;;;8.15;4.97;;;;;;;-10.74;100.00;96887.97;5097775;28;20048;-55
2024/01/14 02:47:28;;;;;;;8.32;3.65;;;;;;;-10.87;100.00;96888.66;5097997;28;20417;-57
2024/01/14 02:49:54;;;;;;;13.52;6.47;;;;;;;-10.83;100.00;96908.19;5097852;28;20141;-57
2024/01/14 02:52:20;;;;;;;11.05;5.10;;;;;;;-10.85;100.00;96907.69;5097988;28;20136;-55
2024/01/14 02:54:46;;;;;;;10.00;5.35;;;;;;;-10.55;100.00;96914.50;5097668;28;20427;-55
2024/01/14 02:57:12;;;;;;;10.80;5.22;;;;;;;-10.77;100.00;96894.63;5097965;28;20048;-52
2024/01/14 02:59:38;;;;;;;7.55;4.53;;;;;;;-10.58;100.00;96888.59;5097566;28;20048;-56
2024/01/14 03:02:04;;;;;;;8.98;4.60;;;;;;;-10.59;100.00;96868.47;5098059;28;20048;-52
2024/01/14 03:04:30;;;;;;;10.52;5.63;;;;;;;-10.84;100.00;96861.63;5097437;28;20499;-55
2024/01/14 03:06:56;;;;;;;14.48;7.03;;;;;;;-9.97;100.00;96877.91;5097728;28;20201;-56
2024/01/14 03:09:22;;;;;;;13.02;4.90;;;;;;;-10.68;100.00;96820.66;5097492;28;20483;-58
2024/01/14 03:11:48;;;;;;;10.52;3.30;;;;;;;-10.79;100.00;96835.88;5097653;28;20044;-58
2024/01/14 03:14:14;;;;;;;17.10;5.60;;;;;;;-10.63;100.00;96840.97;5097499;28;20055;-55
2024/01/14 03:16:40;;;;;;;20.17;6.80;;;;;;;-10.44;100.00;96833.84;5097477;28;20051;-53
2024/01/14 03:19:06;;;;;;;15.30;4.50;;;;;;;-10.36;100.00;96830.56;5097650;28;20048;-54
2024/01/14 03:21:32;;;;;;;8.40;3.92;;;;;;;-10.51;100.00;96794.47;5097272;28;20061;-52
2024/01/14 03:23:58;;;;;;;17.50;6.28;;;;;;;-10.55;100.00;96771.50;5097691;28;20147;-51
2024/01/14 03:26:24;;;;;;;9.05;4.43;;;;;;;-10.46;100.00;96785.69;5097248;28;20338;-53
2024/01/14 03:28:50;;;;;;;10.88;6.20;;;;;;;-10.55;100.00;96782.09;5097567;28;20386;-55
2024/01/14 03:31:16;;;;;;;11.93;4.90;;;;;;;-10.14;100.00;96771.63;5097104;28;20142;-55
2024/01/14 03:33:43;;;;;;;9.75;4.80;;;;;;;-10.20;100.00;96756.88;5097513;28;20058;-52
2024/01/14 03:36:12;;;;;;;10.32;4.78;;;;;;;-10.68;100.00;96752.59;5097086;28;20154;-55
2024/01/14 03:38:38;;;;;;;11.80;4.38;;;;;;;-10.34;100.00;96766.69;5096936;28;20047;-52
2024/01/14 03:41:04;;;;;;;10.57;5.25;;;;;;;-10.30;100.00;96757.88;5097227;28;20071;-53
2024/01/14 03:43:30;;;;;;;8.82;5.47;;;;;;;-10.24;100.00;96747.94;5096698;28;20139;-57
2024/01/14 03:45:56;;;;;;;5.43;3.03;;;;;;;-10.36;100.00;96734.38;5097279;28;20080;-57
2024/01/14 03:48:22;;;;;;;13.98;5.38;;;;;;;-10.21;100.00;96729.63;5096811;28;20052;-55
2024/01/14 03:50:48;;;;;;;11.55;4.40;;;;;;;-10.59;100.00;96718.34;5096957;28;20079;-54
2024/01/14 03:53:15;;;;;;;10.82;4.00;;;;;;;-10.34;100.00;96751.56;5096834;28;20201;-55
2024/01/14 03:55:41;;;;;;;8.02;4.00;;;;;;;-10.19;100.00;96761.13;5097183;28;20155;-56
2024/01/14 03:58:07;;;;;;;10.55;4.20;;;;;;;-10.46;100.00;96730.06;5096705;28;20406;-57
2024/01/14 04:00:32;;;;;;;5.95;4.85;;;;;;;-10.39;100.00;96740.25;5097098;28;20047;-56
2024/01/14 04:02:58;;;;;;;19.52;6.72;;;;;;;-10.15;100.00;96751.53;5096606;28;20052;-57
2024/01/14 04:05:24;;;;;;;8.15;4.30;;;;;;;-10.29;100.00;96738.25;5096827;28;20086;-55
2024/01/14 04:07:51;;;;;;;3.00;2.22;;;;;;;-10.44;100.00;96722.59;5096625;28;20314;-52
2024/01/14 04:10:17;;;;;;;15.63;6.63;;;;;;;-10.12;100.00;96707.75;5096744;28;20147;-57
2024/01/14 04:12:43;;;;;;;9.88;6.00;;;;;;;-10.08;100.00;96709.53;5096858;28;20135;-51
2024/01/14 04:15:10;;;;;;;16.52;6.38;;;;;;;-10.24;100.00;96684.38;5096608;28;20381;-55
2024/01/14 04:17:35;;;;;;;14.93;6.43;;;;;;;-10.26;100.00;96681.25;5096851;28;20058;-57
2024/01/14 04:20:02;;;;;;;18.48;7.10;;;;;;;-10.01;100.00;96707.28;5096338;28;20047;-58
2024/01/14 04:22:28;;;;;;;15.25;5.55;;;;;;;-10.10;100.00;96695.00;5096650;28;20062;-54
2024/01/14 04:24:54;;;;;;;15.73;6.68;;;;;;;-10.27;100.00;96699.00;5096478;28;20052;-55
2024/01/14 04:27:20;;;;;;;11.18;5.20;;;;;;;-10.46;100.00;96714.19;5096754;28;20048;-52
2024/01/14 04:29:46;;;;;;;13.85;5.60;;;;;;;-10.16;100.00;96733.25;5096242;28;20329;-54
2024/01/14 04:32:12;;;;;;;15.43;4.95;;;;;;;-10.30;100.00;96723.44;5096676;28;20138;-57
2024/01/14 04:34:38;;;;;;;9.13;3.58;;;;;;;-10.19;100.00;96756.63;5096449;28;20044;-58
2024/01/14 04:37:04;;;;;;;14.27;6.15;;;;;;;-10.16;100.00;96757.09;5096427;28;20370;-57
2024/01/14 04:39:30;;;;;;;6.20;3.75;;;;;;;-9.96;100.00;96762.88;5096354;28;20428;-57
2024/01/14 04:41:57;;;;;;;10.15;4.22;;;;;;;-10.15;100.00;96734.84;5096264;28;20090;-54
2024/01/14 04:44:23;;;;;;;12.30;5.68;;;;;;;-10.27;100.00;96732.66;5096431;28;20101;-58
2024/01/14 04:46:49;;;;;;;14.18;6.25;;;;;;;-10.00;100.00;96777.75;5096055;28;20056;-55
2024/01/14 04:49:15;;;;;;;9.65;4.50;;;;;;;-10.18;100.00;96752.88;5096197;28;20067;-52
2024/01/14 04:51:41;;;;;;;12.70;4.88;;;;;;;-10.29;100.00;96756.03;5096266;28;20102;-54
2024/01/14 04:54:07;;;;;;;4.03;2.95;;;;;;;-10.23;100.00;96783.97;5096373;28;20078;-52
2024/01/14 04:56:33;;;;;;;12.00;5.10;;;;;;;-9.96;100.00;96807.94;5098992;28;20378;-55
2024/01/14 04:59:00;;;;;;;9.68;4.03;;;;;;;-10.19;100.00;96790.28;5099718;28;20073;-58
2024/01/14 05:01:26;;;;;;;15.00;6.05;;;;;;;-10.15;100.00;96791.28;5099367;28;20421;-57
2024/01/14 05:03:52;;;;;;;10.23;5.35;;;;;;;-10.08;100.00;96804.16;5099829;28;20090;-56
2024/01/14 05:06:18;;;;;;;13.38;6.40;;;;;;;-9.78;100.00;96824.84;5099657;28;20117;-57
2024/01/14 05:08:44;;;;;;;12.73;6.45;;;;;;;-9.97;100.00;96763.16;5099492;28;20331;-57
2024/01/14 05:11:10;;;;;;;9.07;5.32;;;;;;;-9.71;100.00;96766.16;5099558;28;20120;-54
2024/01/14 05:13:36;;;;;;;10.98;5.80;;;;;;;-9.81;100.00;96735.28;5099209;28;20131;-54
2024/01/14 05:16:03;;;;;;;14.55;6.20;;;;;;;-9.87;100.00;96712.59;5099502;28;20376;-54
2024/01/14 05:18:29;;;;;;;9.07;5.32;;;;;;;-9.52;100.00;96705.06;5099233;28;20512;-52
2024/01/14 05:20:55;;;;;;;12.30;5.22;;;;;;;-9.80;100.00;96652.03;5099147;28;20142;-55
2024/01/14 05:23:21;;;;;;;17.20;6.32;;;;;;;-9.60;100.00;96661.44;5098926;28;20132;-54
2024/01/14 05:25:47;;;;;;;11.52;5.90;;;;;;;-9.82;100.00;96630.34;5099361;28;20056;-53
2024/01/14 05:28:13;;;;;;;13.30;4.13;;;;;;;-9.56;100.00;96638.56;5098909;28;20102;-51
2024/01/14 05:30:39;;;;;;;9.75;3.85;;;;;;;-9.77;100.00;96619.63;5099340;28;20055;-54
2024/01/14 05:33:05;;;;;;;14.40;5.03;;;;;;;-9.54;100.00;96630.31;5098796;28;20413;-56
2024/01/14 05:35:31;;;;;;;22.83;5.65;;;;;;;-9.87;100.00;96619.03;5099013;28;20064;-55
2024/01/14 05:37:57;;;;;;;13.05;5.90;;;;;;;-9.69;100.00;96657.94;5098880;28;20278;-55
2024/01/14 05:40:23;;;;;;;7.90;3.92;;;;;;;-9.79;100.00;96650.97;5098911;28;20052;-56
2024/01/14 05:42:49;;;;;;;14.80;7.38;;;;;;;-9.74;100.00;96672.06;5098773;28;20389;-51
2024/01/14 05:45:15;;;;;;;17.80;6.82;;;;;;;-9.50;100.00;96694.94;5098671;28;20189;-52
2024/01/14 05:47:41;;;;;;;20.40;4.97;;;;;;;-9.64;100.00;96699.47;5098765;28;20048;-51
2024/01/14 05:50:09;;;;;;;11.10;5.35;;;;;;;-9.27;100.00;96719.69;5098644;28;20109;-56
2024/01/14 05:52:35;;;;;;;12.18;5.95;;;;;;;-9.60;100.00;96679.22;5098959;28;20401;-57
2024/01/14 05:55:01;;;;;;;13.02;5.28;;;;;;;-9.33;100.00;96671.28;5098717;28;20330;-56
2024/01/14 05:57:27;;;;;;;10.90;5.70;;;;;;;-9.60;100.00;96660.66;5098818;28;20044;-52
2024/01/14 05:59:53;;;;;;;9.88;5.78;;;;;;;-9.41;100.00;96650.72;5098382;28;20048;-51
2024/01/14 06:02:19;;;;;;;18.20;7.20;;;;;;;-9.47;100.00;96657.22;5098704;28;20048;-53
2024/01/14 06:04:45;;;;;;;13.75;5.03;;;;;;;-9.17;100.00;96647.06;5098377;28;20043;-52
2024/01/14 06:07:12;;;;;;;14.02;5.65;;;;;;;-9.50;100.00;96618.03;5096908;28;20051;-54
2024/01/14 06:09:38;;;;;;;15.80;5.88;;;;;;;-9.39;100.00;96630.00;5098648;28;20135;-54
2024/01/14 06:12:04;;;;;;;23.67;7.57;;;;;;;-9.33;100.00;96641.28;5098484;28;20059;-56
2024/01/14 06:14:30;;;;;;;12.55;5.25;;;;;;;-9.49;100.00;96620.38;5098624;28;20130;-52
2024/01/14 06:16:56;;;;;;;18.30;7.50;;;;;;;-9.39;100.00;96656.53;5098173;28;20143;-55
2024/01/14 06:19:22;;;;;;;14.05;6.13;;;;;;;-9.54;100.00;96665.56;5098508;28;20055;-52
2024/01/14 06:21:48;;;;;;;14.60;5.18;;;;;;;-9.43;100.00;96687.38;5098015;28;20443;-56
2024/01/14 06:24:14;;;;;;;20.63;7.35;;;;;;;-9.25;100.00;96701.63;5098430;28;20059;-55
2024/01/14 06:26:40;;;;;;;12.38;6.25;;;;;;;-8.97;100.00;96715.63;5098058;28;20134;-58
2024/01/14 06:29:06;;;;;;;13.88;6.03;;;;;;;-9.10;100.00;96693.31;5098489;28;20405;-57
2024/01/14 06:31:32;;;;;;;11.30;5.18;;;;;;;-9.18;100.00;96669.38;5097918;28;20112;-59
2024/01/14 06:33:59;;;;;;;16.85;6.95;;;;;;;-9.34;100.00;96663.59;5098167;28;20054;-58
2024/01/14 06:36:25;;;;;;;7.50;4.53;;;;;;;-9.36;100.00;96701.03;5097855;28;20056;-54
2024/01/14 06:38:51;;;;;;;28.10;9.00;;;;;;;-8.80;100.00;96749.50;5097696;28;20056;-57
2024/01/14 06:41:18;;;;;;;10.57;5.20;;;;;;;-9.08;100.00;96709.75;5098104;28;20121;-57
2024/01/14 06:43:44;;;;;;;23.50;8.80;;;;;;;-8.98;100.00;96706.09;5097926;28;20048;-56
2024/01/14 06:46:10;;;;;;;12.52;5.88;;;;;;;-8.84;100.00;96720.13;5098098;28;20062;-55
2024/01/14 06:48:36;;;;;;;8.05;4.95;;;;;;;-8.82;100.00;96707.34;5097673;28;20411;-55
2024/01/14 06:51:02;;;;;;;14.07;7.03;;;;;;;-8.44;100.00;96703.56;5097780;28;20056;-55
2024/01/14 06:53:28;;;;;;;9.63;5.60;;;;;;;-8.78;100.00;96665.03;5097592;28;20144;-56
2024/01/14 06:55:54;;;;;;;21.67;7.88;;;;;;;-8.75;100.00;96671.63;5098082;28;20047;-55
2024/01/14 06:58:21;;;;;;;10.00;4.75;;;;;;;-8.92;100.00;96654.47;5097519;28;20044;-58
2024/01/14 07:00:47;;;;;;;18.27;7.45;;;;;;;-8.94;100.00;96682.38;5097917;28;20052;-59
2024/01/14 07:03:14;;;;;;;13.05;7.05;;;;;;;-8.74;100.00;96705.03;5097687;28;20079;-58
2024/01/14 07:05:40;;;;;;;16.63;6.40;;;;;;;-8.81;100.00;96695.63;5097582;28;20094;-55
2024/01/14 07:08:06;;;;;;;21.88;8.13;;;;;;;-8.54;100.00;96707.25;5097610;28;20083;-59
2024/01/14 07:10:32;;;;;;;15.88;6.72;;;;;;;-8.56;100.00;96678.31;5097232;28;20084;-59
2024/01/14 07:12:58;;;;;;;24.50;8.75;;;;;;;-8.74;100.00;96617.41;5097466;28;20070;-57
2024/01/14 07:15:24;;;;;;;18.48;6.53;;;;;;;-8.22;100.00;96634.44;5097356;28;20048;-56
2024/01/14 07:17:50;;;;;;;23.88;9.50;;;;;;;-8.56;100.00;96588.00;5097177;28;20076;-57
2024/01/14 07:20:16;;;;;;;16.33;7.40;;;;;;;-8.34;100.00;96595.09;5097194;28;20310;-53
2024/01/14 07:22:42;;;;;;;28.30;9.20;;;;;;;-8.24;100.00;96586.09;5097656;28;20143;-54
2024/01/14 07:25:08;;;;;;;19.30;8.57;;;;;;;-8.47;100.00;96579.28;5097188;28;20052;-52
2024/01/14 07:27:34;;;;;;;22.27;7.68;;;;;;;-8.02;100.00;96605.75;5097636;28;20048;-57
2024/01/14 07:30:00;;;;;;;11.45;5.57;;;;;;;-8.43;100.00;96558.97;5097116;28;20056;-53
2024/01/14 07:32:26;;;;;;;17.08;6.55;;;;;;;-8.15;100.00;96584.25;5097316;28;20298;-52
2024/01/14 07:34:52;;;;;;;28.08;7.63;;;;;;;-7.93;100.00;96564.81;5097295;28;20194;-54
2024/01/14 07:37:18;;;;;;;23.23;8.43;;;;;;;-8.08;100.00;96504.84;5097178;28;20081;-53
2024/01/14 07:39:46;;;;;;;20.00;5.13;;;;;;;-8.01;100.00;96500.94;5097254;28;20056;-51
2024/01/14 07:42:12;;;;;;;11.23;4.22;;;;;;;-8.15;100.00;96487.78;5096902;28;20448;-51
2024/01/14 07:44:38;;;;;;;14.45;7.57;;;;;;;-8.20;100.00;96494.00;5097324;28;20067;-55
2024/01/14 07:47:04;;;;;;;20.40;7.97;;;;;;;-7.72;100.00;96540.28;5096925;28;20181;-56
2024/01/14 07:49:30;;;;;;;12.25;6.47;;;;;;;-8.10;100.00;96480.44;5097329;28;20059;-54
2024/01/14 07:51:58;;;;;;;14.45;7.15;;;;;;;-7.65;100.00;96500.69;5097151;28;20052;-57
2024/01/14 07:54:24;;;;;;;15.23;5.18;;;;;;;-7.99;100.00;96451.69;5097174;28;20059;-58
2024/01/14 07:56:50;;;;;;;15.93;7.18;;;;;;;-8.09;100.00;96468.72;5096654;28;20055;-58
2024/01/14 07:59:19;;;;;;;12.15;5.97;;;;;;;-7.90;100.00;96510.19;5097237;28;20079;-56
2024/01/14 08:01:46;;;;;;;10.75;5.45;;;;;;;-7.60;100.00;96522.63;5096587;28;20101;-56
2024/01/14 08:04:12;;;;;;;14.75;6.65;;;;;;;-7.61;100.00;96502.41;5096608;28;20058;-51
2024/01/14 08:06:38;;;;;;;13.25;6.57;;;;;;;-7.62;100.00;96508.84;5096787;28;20052;-55
2024/01/14 08:09:06;;;;;;;20.17;6.65;;;;;;;-7.66;100.00;96497.25;5096671;28;20143;-54
2024/01/14 08:11:32;;;;;;;14.02;5.97;;;;;;;-7.48;100.00;96521.22;5096711;28;20142;-57
2024/01/14 08:13:58;;;;;;;18.48;6.65;;;;;;;-7.67;100.00;96506.31;5096463;28;20576;-56
2024/01/14 08:16:24;;;;;;;17.65;6.60;;;;;;;-7.61;100.00;96536.22;5097018;28;20048;-53
2024/01/14 08:18:50;;;;;;;16.77;6.97;;;;;;;-7.48;100.00;96537.19;5096573;28;20113;-54
2024/01/14 08:21:16;;;;;;;15.55;7.45;;;;;;;-7.60;100.00;96519.97;5096536;28;20059;-52
2024/01/14 08:23:43;;;;;;;22.17;9.10;;;;;;;-7.40;100.00;96547.03;5096230;28;20052;-58
2024/01/14 08:26:09;;;;;;;21.45;9.52;;;;;;;-7.49;100.00;96540.94;5096752;28;20058;-53
2024/01/14 08:28:36;;;;;;;22.52;7.32;;;;;;;-7.29;100.00;96569.59;5096162;28;20135;-52
2024/01/14 08:31:02;;;;;;;17.92;7.85;;;;;;;-7.11;100.00;96547.19;5095498;28;20126;-54
2024/01/14 08:33:28;;;;;;;11.25;5.57;;;;;;;-7.06;100.00;96521.50;5096459;28;20058;-54
2024/01/14 08:35:54;;;;;;;15.13;6.45;;;;;;;-7.35;100.00;96514.97;5096391;28;20051;-55
2024/01/14 08:38:20;;;;;;;18.25;7.75;;;;;;;-6.85;100.00;96535.75;5096315;28;20097;-51
2024/01/14 08:40:47;;;;;;;20.88;7.95;;;;;;;-6.70;100.00;96532.56;5096180;28;20131;-54
2024/01/14 08:43:13;;;;;;;19.42;8.50;;;;;;;-6.95;100.00;96478.25;5096410;28;20081;-52
2024/01/14 08:45:39;;;;;;;14.95;7.63;;;;;;;-7.11;100.00;96495.81;5096021;28;20359;-55
2024/01/14 08:48:06;;;;;;;22.75;8.77;;;;;;;-6.83;100.00;96554.06;5096322;28;20160;-56
2024/01/14 08:50:32;;;;;;;13.15;6.65;;;;;;;-6.97;100.00;96572.88;5095901;28;20063;-54
2024/01/14 08:52:58;;;;;;;16.42;8.45;;;;;;;-6.69;100.00;96584.78;5096445;28;20083;-54
2024/01/14 08:55:24;;;;;;;14.32;6.15;;;;;;;-7.00;100.00;96560.97;5095919;28;20444;-56
2024/01/14 08:57:50;;;;;;;25.40;9.35;;;;;;;-6.88;100.00;96611.72;5096402;28;20147;-57
2024/01/14 09:00:18;;;;;;;13.07;6.53;;;;;;;-6.72;100.00;96630.69;5096047;28;20138;-58
2024/01/14 09:02:44;;;;;;;19.02;8.10;;;;;;;-6.92;100.00;96660.63;5095741;28;20071;-52
2024/01/14 09:05:10;;;;;;;16.10;8.15;;;;;;;-6.43;100.00;96701.22;5096101;28;20084;-51
2024/01/14 09:07:36;;;;;;;14.13;6.18;;;;;;;-6.75;100.00;96670.50;5095698;28;20492;-56
2024/01/14 09:10:02;;;;;;;16.15;7.43;;;;;;;-6.54;100.00;96724.75;5095869;28;20048;-56
2024/01/14 09:12:29;;;;;;;23.55;9.40;;;;;;;-6.39;100.00;96755.50;5095850;28;20459;-53
2024/01/14 09:14:55;;;;;;;20.63;9.00;;;;;;;-6.67;100.00;96745.09;5096092;28;20106;-58
2024/01/14 09:17:21;;;;;;;25.08;7.15;;;;;;;-6.51;100.00;96797.97;5095671;28;20139;-58
2024/01/14 09:19:47;;;;;;;13.73;6.93;;;;;;;-6.60;100.00;96829.91;5095935;28;20317;-52
2024/01/14 09:22:13;;;;;;;22.25;6.97;;;;;;;-6.62;100.00;96861.44;5095584;28;20080;-52
2024/01/14 09:24:43;;;;;;;20.63;8.93;;;;;;;-6.15;100.00;96899.03;5096059;28;20055;-51
2024/01/14 09:27:09;;;;;;;16.40;8.15;;;;;;;-6.36;100.00;96874.84;5095412;28;20440;-52
2024/01/14 09:29:35;;;;;;;23.45;8.98;;;;;;;-6.23;100.00;96919.25;5095912;28;20051;-54
2024/01/14 09:32:01;;;;;;;22.23;8.88;;;;;;;-6.32;100.00;96928.31;5095427;28;20390;-57
2024/01/14 09:34:27;;;;;;;20.75;8.85;;;;;;;-6.18;100.00;96956.44;5095523;28;20048;-52
2024/01/14 09:36:53;;;;;;;23.30;8.13;;;;;;;-6.10;100.00;96975.44;5095776;28;20055;-54
2024/01/14 09:39:19;;;;;;;23.50;9.45;;;;;;;-5.89;100.00;96989.75;5095371;28;20186;-54
2024/01/14 09:41:53;;;;;;;19.48;8.38;;;;;;;-5.78;100.00;96959.00;5097585;28;20170;-56
2024/01/14 09:44:19;;;;;;;;;;;;;;;-5.91;100.00;96959.91;5099264;28;20058;-58
2024/01/14 09:46:47;;;;;;;23.67;10.30;;;;;;;-5.76;100.00;96977.38;5099181;28;20375;-57
2024/01/14 09:49:15;;;;;;;27.65;11.50;;;;;;;-5.71;100.00;96994.00;5098597;28;20047;-53
2024/01/14 09:51:42;;;;;;;26.90;11.07;;;;;;;-5.57;100.00;96988.53;5099119;28;20073;-52
2024/01/14 09:54:08;;;;;;;24.05;10.52;;;;;;;-5.57;100.00;96990.41;5098604;28;20370;-54
2024/01/14 09:56:35;;;;;;;23.60;9.57;;;;;;;-5.47;100.00;96984.78;5098548;28;20113;-56
2024/01/14 09:59:02;;;;;;;19.35;8.85;;;;;;;-5.37;100.00;96981.78;5098891;28;20501;-57
2024/01/14 10:01:31;;;;;;;22.30;7.97;;;;;;;-5.18;100.00;96973.47;5098439;28;20059;-58
2024/01/14 10:03:59;;;;;;;16.48;8.73;;;;;;;-5.62;100.00;96942.53;5098806;28;20052;-52
2024/01/14 10:06:26;;;;;;;20.17;9.43;;;;;;;-5.48;100.00;96949.28;5098459;28;20064;-57
2024/01/14 10:08:52;;;;;;;20.35;9.27;;;;;;;-5.15;100.00;96962.16;5098665;28;20059;-55
2024/01/14 10:11:18;;;;;;;18.90;9.48;;;;;;;-4.62;100.00;96950.25;5098507;28;20135;-58
2024/01/14 10:13:44;;;;;;;21.70;9.95;;;;;;;-5.22;100.00;96903.84;5098764;28;20159;-58
2024/01/14 10:16:12;;;;;;;16.20;6.93;;;;;;;-5.22;100.00;96911.88;5098360;28;20070;-57
2024/01/14 10:18:38;;;;;;;24.33;11.25;;;;;;;-4.91;100.00;96942.13;5098712;28;20515;-56
2024/01/14 10:21:04;;;;;;;22.73;9.85;;;;;;;-5.06;100.00;96928.19;5098030;28;20134;-59
2024/01/14 10:23:32;;;;;;;19.05;8.55;;;;;;;-5.06;100.00;96911.38;5098413;28;20051;-56
2024/01/14 10:26:01;;;;;;;23.02;10.20;;;;;;;-4.55;100.00;96910.41;5098498;28;20146;-55
2024/01/14 10:28:31;;;;;;;23.33;10.48;;;;;;;-4.68;100.00;96875.88;5098114;28;20431;-59
2024/01/14 10:30:56;;;;;;;23.67;10.82;;;;;;;-4.53;100.00;96848.59;5098443;28;20139;-56
2024/01/14 10:33:25;;;;;;;23.55;10.73;;;;;;;-4.63;100.00;96840.91;5098099;28;20439;-59
2024/01/14 10:35:51;;;;;;;21.85;9.45;;;;;;;-4.58;100.00;96843.44;5098287;28;20048;-57
2024/01/14 10:38:17;;;;;;;30.88;11.88;;;;;;;-4.27;100.00;96853.78;5097822;28;20097;-59
2024/01/14 10:40:43;;;;;;;26.67;11.05;;;;;;;-4.24;100.00;96849.69;5098159;28;20303;-58
2024/01/14 10:43:09;;;;;;;19.33;10.07;;;;;;;-4.21;100.00;96819.59;5097733;28;20143;-60
2024/01/14 10:45:35;;;;;;;22.98;10.90;;;;;;;-4.31;100.00;96810.84;5098085;28;20371;-58
2024/01/14 10:48:09;;;;;;;20.70;10.55;;;;;;;-3.68;100.00;96839.50;5097808;28;20048;-57
2024/01/14 10:50:36;;;;;;;25.27;10.50;;;;;;;-3.93;100.00;96780.50;5097958;28;20429;-60
2024/01/14 10:53:07;;;;;;;24.05;12.52;;;;;;;-3.93;100.00;96766.31;5097256;28;20362;-55
2024/01/14 10:55:40;;;;;;;26.88;12.23;;;;;;;-3.74;100.00;96784.56;5097928;28;20059;-57
2024/01/14 10:58:11;;;;;;;19.30;9.95;;;;;;;-3.85;100.00;96755.53;5098057;28;20290;-57
2024/01/14 11:00:39;;;;;;;26.40;10.82;;;;;;;-3.90;100.00;96765.66;5097741;28;20196;-58
2024/01/14 11:03:07;;;;;;;26.00;11.90;;;;;;;-3.73;100.00;96800.31;5097934;28;20047;-56
2024/01/14 11:05:35;;;;;;;25.33;12.05;;;;;;;-3.69;100.00;96798.56;5097604;28;20064;-58
2024/01/14 11:08:01;;;;;;;20.92;11.20;;;;;;;-3.47;100.00;96783.19;5097857;28;20135;-55
2024/01/14 11:10:28;;;;;;;31.08;12.05;;;;;;;-3.36;100.00;96762.94;5097216;28;20143;-58